Terminal Aerodrome Forecast
Issued by NWS

Home | Current Version | Previous Version | Text Only | Print | Product List | Glossary On
Versions: 1 2 3 4 5 6 7 8 9 10 11 12 13
966
FTUS42 TJSJ 251120
TAFISX
TAF
TISX 251120Z 2512/2612 08014KT P6SM FEW019 FEW029
     FM251300 11013KT P6SM SCT025
     FM252300 06010KT P6SM FEW025 SCT040=

USA.gov is the U.S. government's official web portal to all federal, state and local government web resources and services.